createdAt,value
2022-10-17T00:01:59.890Z,101765.87
2022-10-17T00:05:01.434Z,101761.84
2022-10-17T00:08:03.297Z,101768.63
2022-10-17T00:11:08.869Z,101777.06
2022-10-17T00:14:11.149Z,101773.81
2022-10-17T00:17:12.814Z,101769.22
2022-10-17T00:20:15.874Z,101773.69
2022-10-17T00:23:18.266Z,101780.09
2022-10-17T00:26:20.974Z,101785.75
2022-10-17T00:29:22.544Z,101783.78
2022-10-17T00:32:24.570Z,101780.38
2022-10-17T00:35:26.242Z,101784.69
2022-10-17T00:38:28.208Z,101782.44
2022-10-17T00:41:32.686Z,101779.66
2022-10-17T00:44:34.217Z,101779.53
2022-10-17T00:47:37.235Z,101788.38
2022-10-17T00:51:00.476Z,101787.84
2022-10-17T00:54:03.290Z,101786.59
2022-10-17T00:57:05.560Z,101788.22
2022-10-17T01:00:09.165Z,101783.88
2022-10-17T01:03:10.813Z,101784.56
2022-10-17T01:06:12.628Z,101777.50
2022-10-17T01:09:14.358Z,101781.00
2022-10-17T01:12:22.089Z,101786.50
2022-10-17T01:15:42.049Z,101780.50
2022-10-17T01:19:19.032Z,101778.91
2022-10-17T01:22:28.057Z,101784.78
2022-10-17T01:25:43.107Z,101779.91
2022-10-17T01:28:54.067Z,101777.72
2022-10-17T01:32:02.119Z,101768.34
2022-10-17T01:35:22.076Z,101779.25
2022-10-17T01:38:31.269Z,101777.56
2022-10-17T01:42:19.018Z,101777.06
2022-10-17T01:45:41.582Z,101777.59
2022-10-17T01:48:46.406Z,101774.03
2022-10-17T01:51:54.322Z,101779.44
2022-10-17T01:55:03.342Z,101785.09
2022-10-17T01:58:10.436Z,101782.28
2022-10-17T02:01:13.151Z,101776.66
2022-10-17T02:04:16.699Z,101779.28
2022-10-17T02:07:18.366Z,101774.28
2022-10-17T02:10:30.708Z,101778.41
2022-10-17T02:14:01.152Z,101775.34
2022-10-17T02:17:28.053Z,101782.72
2022-10-17T02:20:47.450Z,101780.84
2022-10-17T02:24:04.031Z,101792.25
2022-10-17T02:27:14.043Z,101791.72
2022-10-17T02:30:31.566Z,101790.69
2022-10-17T02:34:05.080Z,101787.31
2022-10-17T02:37:10.804Z,101792.25
2022-10-17T02:40:15.316Z,101797.22
2022-10-17T02:43:17.008Z,101791.38
2022-10-17T02:46:22.251Z,101799.53
2022-10-17T02:49:29.618Z,101795.59
2022-10-17T02:52:49.044Z,101792.63
2022-10-17T02:55:57.396Z,101804.62
2022-10-17T02:59:00.579Z,101803.94
2022-10-17T03:02:06.890Z,101800.06
2022-10-17T03:05:09.579Z,101804.84
2022-10-17T03:08:11.853Z,101802.59
2022-10-17T03:11:13.403Z,101808.38
2022-10-17T03:14:15.003Z,101816.03
2022-10-17T03:17:16.921Z,101808.41
2022-10-17T03:20:18.571Z,101810.91
2022-10-17T03:23:20.160Z,101820.00
2022-10-17T03:26:22.167Z,101825.69
2022-10-17T03:29:23.793Z,101831.34
2022-10-17T03:32:25.785Z,101832.78
2022-10-17T03:35:27.644Z,101828.47
2022-10-17T03:38:29.225Z,101828.12
2022-10-17T03:41:31.251Z,101832.38
2022-10-17T03:44:32.847Z,101838.88
2022-10-17T03:47:34.840Z,101836.03
2022-10-17T03:50:36.532Z,101841.13
2022-10-17T03:53:38.339Z,101847.41
2022-10-17T03:56:40.031Z,101851.88
2022-10-17T03:59:41.587Z,101846.78
2022-10-17T04:02:44.961Z,101853.97
2022-10-17T04:05:46.536Z,101853.09
2022-10-17T04:08:48.789Z,101863.94
2022-10-17T04:11:50.521Z,101865.69
2022-10-17T04:14:52.356Z,101861.47
2022-10-17T04:17:54.144Z,101857.41
2022-10-17T04:20:56.167Z,101861.13
2022-10-17T04:24:00.660Z,101854.91
2022-10-17T04:27:02.350Z,101849.38
2022-10-17T04:30:04.667Z,101862.97
2022-10-17T04:33:06.694Z,101867.44
2022-10-17T04:36:13.335Z,101856.84
2022-10-17T04:39:14.987Z,101864.53
2022-10-17T04:42:17.016Z,101870.59
2022-10-17T04:45:18.591Z,101877.22
2022-10-17T04:48:20.702Z,101881.37
2022-10-17T04:51:24.595Z,101882.50
2022-10-17T04:54:28.550Z,101880.38
2022-10-17T04:57:30.144Z,101879.06
2022-10-17T05:00:32.059Z,101879.03
2022-10-17T05:03:35.248Z,101883.03
2022-10-17T05:06:37.939Z,101895.72
2022-10-17T05:09:39.507Z,101886.84
2022-10-17T05:12:41.679Z,101890.00
2022-10-17T05:15:43.276Z,101889.72
2022-10-17T05:18:47.427Z,101898.25
2022-10-17T05:21:51.003Z,101901.53
2022-10-17T05:24:52.558Z,101910.56
2022-10-17T05:27:54.781Z,101910.38
2022-10-17T05:30:56.763Z,101916.34
2022-10-17T05:34:07.088Z,101915.47
2022-10-17T05:37:10.947Z,101917.22
2022-10-17T05:40:12.649Z,101928.37
2022-10-17T05:43:14.884Z,101939.28
2022-10-17T05:46:17.279Z,101934.41
2022-10-17T05:49:32.177Z,101932.94
2022-10-17T05:52:42.883Z,101941.13
2022-10-17T05:55:46.829Z,101943.75
2022-10-17T05:58:50.628Z,101937.81
2022-10-17T06:01:54.892Z,101945.22
2022-10-17T06:04:56.536Z,101957.94
2022-10-17T06:08:01.131Z,101965.94
2022-10-17T06:11:07.586Z,101962.53
2022-10-17T06:14:11.667Z,101963.78
2022-10-17T06:17:15.981Z,101963.41
2022-10-17T06:20:18.166Z,101970.66
2022-10-17T06:23:20.325Z,101969.37
2022-10-17T06:26:22.498Z,101975.44
2022-10-17T06:29:24.243Z,101982.37
2022-10-17T06:32:25.820Z,101982.22
2022-10-17T06:35:27.779Z,101989.22
2022-10-17T06:38:29.777Z,101992.97
2022-10-17T06:41:31.446Z,101994.47
2022-10-17T06:44:33.067Z,102000.28
2022-10-17T06:47:35.920Z,101999.84
2022-10-17T06:50:37.554Z,102010.09
2022-10-17T06:53:40.514Z,102002.34
2022-10-17T06:56:42.106Z,102009.25
2022-10-17T06:59:44.079Z,102021.88
2022-10-17T07:02:45.780Z,102025.72
2022-10-17T07:05:55.631Z,102023.47
2022-10-17T07:08:57.562Z,102022.78
2022-10-17T07:12:00.141Z,102036.38
2022-10-17T07:15:04.193Z,102031.72
2022-10-17T07:18:06.589Z,102034.94
2022-10-17T07:21:09.048Z,102042.34
2022-10-17T07:24:10.627Z,102044.63
2022-10-17T07:27:13.752Z,102046.78
2022-10-17T07:30:16.167Z,102035.38
2022-10-17T07:33:17.780Z,102041.69
2022-10-17T07:36:19.763Z,102035.38
2022-10-17T07:39:21.326Z,102038.69
2022-10-17T07:42:23.367Z,102031.06
2022-10-17T07:45:27.682Z,102042.72
2022-10-17T07:48:30.243Z,102046.72
2022-10-17T07:51:31.947Z,102038.50
2022-10-17T07:54:34.030Z,102035.44
2022-10-17T07:57:35.590Z,102041.88
2022-10-17T08:00:37.896Z,102038.19
2022-10-17T08:03:39.573Z,102047.06
2022-10-17T08:06:41.422Z,102048.59
2022-10-17T08:09:44.327Z,102049.66
2022-10-17T08:12:46.341Z,102054.63
2022-10-17T08:15:48.130Z,102046.44
2022-10-17T08:18:50.111Z,102049.09
2022-10-17T08:21:52.755Z,102047.00
2022-10-17T08:24:54.513Z,102048.41
2022-10-17T08:27:56.167Z,102049.66
2022-10-17T08:31:09.772Z,102042.00
2022-10-17T08:34:11.352Z,102050.16
2022-10-17T08:37:15.970Z,102048.53
2022-10-17T08:40:27.972Z,102052.97
2022-10-17T08:43:52.709Z,102060.41
2022-10-17T08:46:59.153Z,102051.75
2022-10-17T08:50:04.184Z,102051.81
2022-10-17T08:53:41.571Z,102053.22
2022-10-17T08:56:50.079Z,102056.16
2022-10-17T08:59:54.314Z,102062.66
2022-10-17T09:03:47.306Z,102058.41
2022-10-17T09:07:14.084Z,102060.63
2022-10-17T09:10:28.885Z,102056.09
2022-10-17T09:13:44.014Z,102058.91
2022-10-17T09:17:04.313Z,102056.56
2022-10-17T09:20:20.603Z,102057.59
2022-10-17T09:23:23.898Z,102058.66
2022-10-17T09:26:26.302Z,102059.28
2022-10-17T09:29:36.015Z,102058.44
2022-10-17T09:32:41.088Z,102053.94
2022-10-17T09:35:43.888Z,102053.91
2022-10-17T09:38:53.136Z,102062.22
2022-10-17T09:41:57.830Z,102050.53
2022-10-17T09:45:25.004Z,102055.50
2022-10-17T09:48:37.230Z,102055.66
2022-10-17T09:51:39.480Z,102055.31
2022-10-17T09:54:46.983Z,102061.34
2022-10-17T09:58:03.607Z,102059.56
2022-10-17T10:01:21.056Z,102060.31
2022-10-17T10:04:30.225Z,102048.38
2022-10-17T10:07:38.190Z,102043.81
2022-10-17T10:10:43.432Z,102047.91
2022-10-17T10:13:49.424Z,102053.03
2022-10-17T10:16:53.854Z,102051.25
2022-10-17T10:19:56.214Z,102054.69
2022-10-17T10:23:18.541Z,102054.41
2022-10-17T10:26:32.251Z,102040.31
2022-10-17T10:29:34.389Z,102048.81
2022-10-17T10:32:37.557Z,102054.16
2022-10-17T10:35:39.615Z,102051.78
2022-10-17T10:38:42.563Z,102049.53
2022-10-17T10:41:50.813Z,102046.13
2022-10-17T10:44:56.252Z,102036.56
2022-10-17T10:48:00.911Z,102039.56
2022-10-17T10:51:09.369Z,102038.47
2022-10-17T10:54:30.011Z,102033.47
2022-10-17T10:57:35.038Z,102029.19
2022-10-17T11:00:39.182Z,102031.88
2022-10-17T11:03:53.199Z,102024.31
2022-10-17T11:07:22.709Z,102028.50
2022-10-17T11:10:59.904Z,102018.31
2022-10-17T11:14:23.740Z,102019.00
2022-10-17T11:17:55.297Z,102016.22
2022-10-17T11:21:20.689Z,102018.34
2022-10-17T11:24:31.299Z,102018.44
2022-10-17T11:27:34.399Z,102008.06
2022-10-17T11:31:03.407Z,102011.75
2022-10-17T11:34:19.666Z,102004.28
2022-10-17T11:37:26.404Z,101997.66
2022-10-17T11:40:33.864Z,102002.63
2022-10-17T11:43:52.445Z,102002.44
2022-10-17T11:47:05.922Z,101991.06
2022-10-17T11:54:09.040Z,102005.00
2022-10-17T11:57:37.666Z,102001.47
2022-10-17T12:00:51.395Z,101993.34
2022-10-17T12:04:14.426Z,101991.81
2022-10-17T12:07:36.732Z,101992.37
2022-10-17T12:10:53.819Z,101983.84
2022-10-17T12:13:56.904Z,101982.44
2022-10-17T12:16:59.255Z,101980.56
2022-10-17T12:20:26.339Z,101981.50
2022-10-17T12:23:32.760Z,101990.31
2022-10-17T12:26:34.510Z,101985.81
2022-10-17T12:29:36.476Z,101983.22
2022-10-17T12:33:05.551Z,101977.72
2022-10-17T12:36:17.103Z,101968.81
2022-10-17T12:39:18.578Z,101975.94
2022-10-17T12:42:31.568Z,101969.84
2022-10-17T12:46:02.874Z,101959.19
2022-10-17T12:49:19.599Z,101953.16
2022-10-17T12:52:27.635Z,101956.69
2022-10-17T12:55:29.353Z,101954.16
2022-10-17T12:58:31.389Z,101951.31
2022-10-17T13:01:36.797Z,101951.38
2022-10-17T13:04:38.645Z,101947.84
2022-10-17T13:07:44.511Z,101946.00
2022-10-17T13:10:51.804Z,101954.12
2022-10-17T13:13:57.971Z,101948.63
2022-10-17T13:17:06.201Z,101951.22
2022-10-17T13:20:25.481Z,101944.19
2022-10-17T13:23:36.344Z,101944.28
2022-10-17T13:26:37.937Z,101939.91
2022-10-17T13:29:44.518Z,101944.94
2022-10-17T13:32:46.385Z,101945.59
2022-10-17T13:36:00.137Z,101947.84
2022-10-17T13:39:12.207Z,101945.69
2022-10-17T13:42:24.662Z,101937.50
2022-10-17T13:45:37.073Z,101940.72
2022-10-17T13:48:38.785Z,101946.50
2022-10-17T13:51:45.072Z,101940.00
2022-10-17T13:54:51.244Z,101934.09
2022-10-17T13:57:53.155Z,101933.38
2022-10-17T14:00:55.039Z,101939.47
2022-10-17T14:04:08.315Z,101938.94
2022-10-17T14:07:26.424Z,101933.19
2022-10-17T14:10:34.895Z,101934.19
2022-10-17T14:13:36.520Z,101939.34
2022-10-17T14:16:43.372Z,101936.38
2022-10-17T14:19:51.480Z,101938.75
2022-10-17T14:23:21.376Z,101932.81
2022-10-17T14:26:24.223Z,101937.53
2022-10-17T14:29:50.390Z,101938.72
2022-10-17T14:32:56.938Z,101935.16
2022-10-17T14:36:01.603Z,101932.22
2022-10-17T14:39:05.434Z,101932.72
2022-10-17T14:42:07.277Z,101927.06
2022-10-17T14:45:14.659Z,101923.34
2022-10-17T14:48:18.744Z,101928.13
2022-10-17T14:51:20.714Z,101931.47
2022-10-17T14:54:29.331Z,101935.63
2022-10-17T14:57:33.938Z,101937.84
2022-10-17T15:00:35.525Z,101931.28
2022-10-17T15:03:37.354Z,101933.69
2022-10-17T15:06:40.693Z,101934.66
2022-10-17T15:09:43.896Z,101939.81
2022-10-17T15:12:52.077Z,101935.56
2022-10-17T15:16:01.546Z,101934.87
2022-10-17T15:19:03.505Z,101941.06
2022-10-17T15:22:05.137Z,101935.31
2022-10-17T15:25:07.293Z,101939.97
2022-10-17T15:28:13.190Z,101931.19
2022-10-17T15:31:18.693Z,101937.38
2022-10-17T15:34:20.468Z,101932.53
2022-10-17T15:37:24.449Z,101933.53
2022-10-17T15:40:29.412Z,101929.16
2022-10-17T15:43:31.171Z,101929.56
2022-10-17T15:46:34.845Z,101930.16
2022-10-17T15:49:36.393Z,101933.59
2022-10-17T15:52:38.483Z,101934.59
2022-10-17T15:55:40.785Z,101952.91
2022-10-17T15:58:42.413Z,101945.31
2022-10-17T16:01:44.527Z,101948.06
2022-10-17T16:04:47.597Z,101949.28
2022-10-17T16:07:49.993Z,101953.72
2022-10-17T16:10:52.366Z,101961.44
2022-10-17T16:13:57.029Z,101967.41
2022-10-17T16:16:59.852Z,101961.63
2022-10-17T16:20:01.604Z,101969.25
2022-10-17T16:23:04.177Z,101967.53
2022-10-17T16:26:06.291Z,101969.59
2022-10-17T16:29:09.398Z,101975.50
2022-10-17T16:32:11.500Z,101978.50
2022-10-17T16:35:19.511Z,101977.59
2022-10-17T16:38:21.211Z,101986.22
2022-10-17T16:41:35.347Z,101980.75
2022-10-17T16:44:37.047Z,101992.50
2022-10-17T16:47:38.658Z,101989.47
2022-10-17T16:50:40.804Z,101990.81
2022-10-17T16:53:45.793Z,101989.78
2022-10-17T16:56:47.537Z,101994.59
2022-10-17T16:59:49.142Z,101996.50
2022-10-17T17:02:51.126Z,101987.81
2022-10-17T17:05:52.716Z,101984.38
2022-10-17T17:08:55.327Z,101985.63
2022-10-17T17:11:58.299Z,101986.81
2022-10-17T17:15:02.935Z,101981.38
2022-10-17T17:18:08.662Z,101984.59
2022-10-17T17:21:11.639Z,101985.22
2022-10-17T17:24:13.961Z,101987.44
2022-10-17T17:27:16.108Z,101994.38
2022-10-17T17:30:18.351Z,101993.41
2022-10-17T17:33:21.188Z,101996.34
2022-10-17T17:36:30.131Z,101992.66
2022-10-17T17:39:31.946Z,101993.94
2022-10-17T17:42:34.551Z,101994.97
2022-10-17T17:45:37.108Z,101996.09
2022-10-17T17:48:41.186Z,101992.09
2022-10-17T17:51:46.927Z,101993.81
2022-10-17T17:54:50.356Z,101985.59
2022-10-17T17:57:52.179Z,101990.63
